Donner, Louisiana
Current Conditions -  °F | °C
As of 3:35 AM on Sunday 23 Nov 2014 (Local Time) from KHUM Reporting Station
Overcast Overcast  
Wind Chill: 65°   Ceiling: 500
Heat Index: 65°   Visibility: 7mi
Dew Point: 65°   Wind: 16mph
Humidity: 97%   Direction: 80°E
Pressure: 29.71"   Gusts: 22mph
Location:  29.7°N, 90.94°W
Report Text: KHUM 230935Z AUTO 08014G19KT 7SM OVC005 19/18 A2971 RMK AO2 LTG DSNT N NE AND SW T01860181
Loading
Personal Weather Stations






























Interactive Weather Map New forecast layout! Learn more

10-Day Weather Forecast

Advertisements
Track Severe Weather on mobile